Flight Track Log - Related Links

Times and Time Zones

All times are in EDT time to prevent confusion due to time zone crossing. See the SWA407 flight status page for this flight to view local times or setup timezone preferences in your user account.

Time Position Orientation Groundspeed Altitude Reporting Facility
EDT Latitude Longitude Course Direction KTS MPH feet Rate Location/Type
Thu 12:51:44 AM 37.6833 -122.3667 360° North 187 215 4,300  Level Northern Cal TRACON
Thu 12:52:45 AM 37.6667 -122.4333 252° West 252 290 7,800 2,611 Climbing Northern Cal TRACON
Thu 12:53:55 AM 37.5844 -122.4928 210° Southwest 302 348 10,000 1,924 Climbing Oakland Center
Thu 12:54:56 AM 37.4944 -122.5308 199° South 348 400 12,000 3,124 Climbing Oakland Center
Thu 12:55:56 AM 37.3947 -122.5381 183° South 359 413 16,300 4,215 Climbing Oakland Center
Thu 12:56:57 AM 37.2633 -122.5481 183° South 386 444 20,500 3,639 Climbing Oakland Center
Thu 12:57:58 AM 37.1478 -122.5553 183° South 410 472 23,700 2,902 Climbing Oakland Center
Thu 12:58:59 AM 37.0461 -122.4722 147° Southeast 433 498 26,400 2,607 Climbing Oakland Center
Thu 01:00:00 AM 36.9472 -122.3756 142° Southeast 447 514 29,000 2,361 Climbing Oakland Center
Thu 01:01:01 AM 36.8442 -122.2767 142° Southeast 463 533 31,200 2,281 Climbing Oakland Center
Thu 01:02:01 AM 36.7383 -122.1756 143° Southeast 475 547 33,600 2,281 Climbing Oakland Center
Thu 01:03:02 AM 36.6322 -122.0733 142° Southeast 482 555 35,800 1,869 Climbing Oakland Center
Thu 01:04:03 AM 36.5258 -121.9708 142° Southeast 485 558 37,400 1,377 Climbing Oakland Center
Thu 01:05:04 AM 36.4167 -121.8700 143° Southeast 489 563 38,600 793 Climbing Oakland Center
Thu 01:06:04 AM 36.2983 -121.7550 142° Southeast 496 571 39,000 198 Climbing Oakland Center
Thu 01:07:05 AM 36.1897 -121.6539 143° Southeast 489 563 39,000  Level Oakland Center
Thu 01:08:06 AM 36.1025 -121.5294 131° Southeast 479 551 39,000  Level Oakland Center
Thu 01:09:06 AM 36.0178 -121.4011 129° Southeast 481 554 39,000  Level Oakland Center
Thu 01:10:07 AM 35.9333 -121.2756 130° Southeast 477 549 39,000  Level Oakland Center
Thu 01:11:08 AM 35.8486 -121.1497 130° Southeast 476 548 39,000  Level Oakland Center
Thu 01:12:09 AM 35.7642 -121.0261 130° Southeast 474 545 39,000  Level Oakland Center
Thu 01:13:09 AM 35.6806 -120.9022 130° Southeast 470 541 39,000  Level Oakland Center
Thu 01:14:10 AM 35.5961 -120.7786 130° Southeast 473 544 39,000  Level Oakland Center
Thu 01:15:11 AM 35.5119 -120.6558 130° Southeast 472 543 39,000  Level Oakland Center
Thu 01:16:11 AM 35.4278 -120.5353 131° Southeast 471 542 39,000  Level Oakland Center
Thu 01:17:12 AM 35.3386 -120.4056 130° Southeast 473 544 39,000  Level Oakland Center
Thu 01:18:13 AM 35.2525 -120.2808 130° Southeast 477 549 39,000  Level Oakland Center
Thu 01:19:13 AM 35.1625 -120.1506 130° Southeast 471 542 39,000  Level Oakland Center
Thu 01:20:14 AM 35.0778 -120.0292 130° Southeast 471 542 39,000 -541 Level Oakland Center
Thu 01:21:15 AM 34.9922 -119.9078 131° Southeast 473 544 37,900 -1,041 Descending Oakland Center
Thu 01:22:15 AM 34.9047 -119.7819 130° Southeast 481 554 36,900 -942 Descending Oakland Center
Thu 01:23:16 AM 34.8144 -119.6531 130° Southeast 494 568 36,000 -885 Descending Oakland Center
Thu 01:24:17 AM 34.7236 -119.5267 131° Southeast 498 573 35,100 -492 Descending Oakland Center
Thu 01:25:18 AM 34.6342 -119.3983 130° Southeast 499 574 35,000 -45 Descending Oakland Center
Thu 01:26:29 AM 34.5247 -119.2508 132° Southeast 497 572 35,000  Level Los Angeles Center
Thu 01:27:30 AM 34.4342 -119.1225 131° Southeast 500 575 35,000  Level Los Angeles Center
Thu 01:28:31 AM 34.3247 -118.9714 131° Southeast 498 573 35,000  Level Los Angeles Center
Thu 01:29:32 AM 34.2347 -118.8461 131° Southeast 495 570 35,000  Level Los Angeles Center
Thu 01:30:33 AM 34.1428 -118.7217 132° Southeast 497 572 35,000  Level Los Angeles Center
Thu 01:31:35 AM 34.0525 -118.5969 131° Southeast 494 568 35,000 -244 Level Los Angeles Center
Thu 01:32:36 AM 33.9617 -118.4717 131° Southeast 494 568 34,500 -1,279 Descending Los Angeles Center
Thu 01:33:37 AM 33.8672 -118.3458 132° Southeast 499 574 32,400 -1,881 Descending Los Angeles Center
Thu 01:34:50 AM 33.7864 -118.2397 132° Southeast 492 566 30,300 -2,328 Descending Los Angeles Center
Thu 01:35:51 AM 33.6614 -118.0836 134° Southeast 473 544 27,200 -2,607 Descending Los Angeles Center
Thu 01:36:52 AM 33.5772 -117.9769 133° Southeast 452 520 25,000 -2,066 Descending Los Angeles Center
Thu 01:37:53 AM 33.4956 -117.8731 133° Southeast 435 501 23,000 -2,155 Descending Los Angeles Center
Thu 01:38:35 AM 33.4333 -117.8000 136° Southeast 413 475 21,300 -2,294 Descending Southern California TRACON
Thu 01:39:35 AM 33.3500 -117.7000 135° Southeast 409 471 19,100 -2,100 Descending Southern California TRACON
Thu 01:39:55 AM 33.3372 -117.6736 120° Southeast 414 476 18,500 -2,111 Descending Los Angeles Center
Thu 01:40:29 AM 33.2833 -117.6167 139° Southeast 399 459 17,200 -1,770 Descending Southern California TRACON
Thu 01:42:58 AM 33.0925 -117.4339 141° Southeast 374 430 13,100 -1,629 Descending Los Angeles Center
Thu 01:43:59 AM 33.0083 -117.3769 150° Southeast 360 414 11,500 -1,475 Descending Los Angeles Center
Thu 01:45:00 AM 32.9289 -117.3253 151° Southeast 342 394 10,100 -1,770 Descending Los Angeles Center
Thu 01:46:01 AM 32.8581 -117.2492 138° Southeast 309 356 7,900 -2,115 Descending Los Angeles Center
Thu 01:47:02 AM 32.8156 -117.1736 124° Southeast 288 331 5,800 -1,475 Descending Los Angeles Center
Thu 01:48:03 AM 32.7808 -117.1053 121° Southeast 260 299 4,900 -984 Descending Los Angeles Center
Thu 01:49:04 AM 32.7522 -117.0581 126° Southeast 216 249 3,800 -1,328 Descending Los Angeles Center
Thu 01:50:05 AM 32.7117 -117.0889 213° Southwest 183 211 2,200 -1,377 Descending Los Angeles Center
Thu 01:51:06 AM 32.7200 -117.1381 281° West 157 181 1,000 -1,033 Descending Los Angeles Center
Thu 01:52:07 AM 32.7311 -117.1767 289° West 131 151 100 -885 Descending Los Angeles Center

Login

Don't have an account? Register now (free) for customized features, flight alerts, and more!